Time;durP1;ratioP1;P1;durP2;ratioP2;P2;SDS_P1;SDS_P2;PMS_P1;PMS_P2;Temp;Humidity;BMP_temperature;BMP_pressure;BME280_temperature;BME280_humidity;BME280_pressure;Samples;Min_cycle;Max_cycle;Signal;HPM_P1;HPM_P2
2023/03/30 00:00:17;;;;;;;15.10;2.50;;;14.80;61.70;;;;;;5073447;28;20028;-84
2023/03/30 00:02:44;;;;;;;15.82;3.60;;;14.80;62.40;;;;;;5073792;28;20111;-83
2023/03/30 00:05:10;;;;;;;16.83;3.17;;;14.80;64.80;;;;;;5073153;28;20166;-84
2023/03/30 00:07:41;;;;;;;14.95;3.85;;;14.70;65.40;;;;;;5073352;28;20048;-82
2023/03/30 00:10:08;;;;;;;14.70;2.97;;;14.50;66.00;;;;;;5073684;28;20362;-82
2023/03/30 00:12:34;;;;;;;19.20;2.95;;;14.40;67.60;;;;;;5073156;28;20020;-81
2023/03/30 00:14:59;;;;;;;21.33;3.47;;;14.30;68.40;;;;;;5073382;28;20031;-81
2023/03/30 00:17:25;;;;;;;22.83;3.63;;;14.30;68.50;;;;;;5073180;28;20055;-81
2023/03/30 00:19:50;;;;;;;16.88;3.17;;;14.20;69.80;;;;;;5073224;28;20017;-80
2023/03/30 00:22:16;;;;;;;11.77;3.10;;;14.10;71.20;;;;;;5073239;28;20074;-80
2023/03/30 00:24:42;;;;;;;14.18;3.08;;;13.90;71.90;;;;;;5072143;28;20492;-79
2023/03/30 00:27:07;;;;;;;14.90;3.38;;;13.70;72.50;;;;;;5072754;28;20070;-82
2023/03/30 00:29:33;;;;;;;16.55;3.78;;;13.60;72.80;;;;;;5073070;28;20119;-79
2023/03/30 00:31:58;;;;;;;12.98;3.17;;;13.50;72.60;;;;;;5072980;28;20048;-80
2023/03/30 00:34:24;;;;;;;12.02;3.40;;;13.40;72.50;;;;;;5073014;28;20020;-77
2023/03/30 00:36:52;;;;;;;17.15;3.35;;;13.30;72.90;;;;;;5073084;28;20028;-81
2023/03/30 00:39:21;;;;;;;11.20;2.92;;;13.30;73.00;;;;;;5072713;28;20048;-79
2023/03/30 00:41:47;;;;;;;16.83;3.47;;;13.30;72.70;;;;;;5072505;28;20067;-79
2023/03/30 00:45:05;;;;;;;14.82;3.00;;;13.30;72.00;;;;;;5072534;28;20076;-74
2023/03/30 00:47:32;;;;;;;15.32;3.40;;;13.30;71.60;;;;;;5040018;28;20033;-77
2023/03/30 00:49:58;;;;;;;18.92;3.63;;;13.30;71.40;;;;;;5072363;28;20024;-75
2023/03/30 00:52:24;;;;;;;16.75;3.60;;;13.40;72.00;;;;;;5072646;28;20020;-75
2023/03/30 00:54:56;;;;;;;18.42;3.45;;;13.50;64.10;;;;;;5072443;28;20029;-74
2023/03/30 00:57:24;;;;;;;20.10;3.85;;;13.60;63.90;;;;;;5072519;28;20374;-74
2023/03/30 00:59:51;;;;;;;20.02;4.35;;;13.80;61.00;;;;;;5072225;28;20470;-74
2023/03/30 01:02:20;;;;;;;17.08;4.10;;;14.00;59.30;;;;;;5072274;28;20117;-75
2023/03/30 01:04:47;;;;;;;16.17;2.88;;;14.20;57.50;;;;;;5072001;28;20025;-72
2023/03/30 01:07:13;;;;;;;17.08;3.58;;;14.50;57.50;;;;;;5072395;28;20041;-73
2023/03/30 01:09:40;;;;;;;20.25;3.20;;;14.50;56.60;;;;;;5072287;28;20027;-73
2023/03/30 01:12:06;;;;;;;15.77;3.33;;;14.50;56.30;;;;;;5072138;28;20028;-72
2023/03/30 01:14:32;;;;;;;20.10;3.33;;;14.60;56.20;;;;;;5072085;28;20031;-73
2023/03/30 01:17:18;;;;;;;13.45;2.60;;;14.60;56.00;;;;;;5072058;28;20024;-73
2023/03/30 01:19:58;;;;;;;19.08;3.85;;;14.60;55.90;;;;;;5072212;28;20021;-71
2023/03/30 01:22:48;;;;;;;17.00;3.55;;;14.60;56.40;;;;;;5072071;28;20032;-73
2023/03/30 01:25:32;;;;;;;14.90;3.55;;;14.60;56.70;;;;;;5071811;28;20074;-74
2023/03/30 01:28:12;;;;;;;23.83;3.40;;;14.60;57.50;;;;;;5071998;28;20020;-71
2023/03/30 01:31:13;;;;;;;22.65;4.03;;;14.60;56.60;;;;;;5071990;28;20381;-72
2023/03/30 01:33:58;;;;;;;21.98;4.55;;;14.60;57.10;;;;;;5071741;28;20084;-77
2023/03/30 01:36:56;;;;;;;19.42;3.53;;;14.70;56.60;;;;;;5071779;28;20024;-77
2023/03/30 01:39:38;;;;;;;23.90;4.63;;;14.90;56.70;;;;;;5072045;28;20469;-78
2023/03/30 01:42:09;;;;;;;18.20;3.50;;;14.90;58.90;;;;;;5071726;28;20028;-78
2023/03/30 01:44:51;;;;;;;21.50;3.88;;;14.80;60.80;;;;;;5071587;28;20083;-79
2023/03/30 01:47:39;;;;;;;;;;;14.60;62.40;;;;;;5152575;27;20393;-79
2023/03/30 01:50:10;;;;;;;30.10;4.35;;;14.40;62.90;;;;;;5152091;27;20278;-82
2023/03/30 01:52:57;;;;;;;22.02;3.58;;;14.20;62.50;;;;;;5151861;27;20026;-80
2023/03/30 01:55:44;;;;;;;18.15;3.70;;;14.20;63.20;;;;;;5099970;27;20113;-79
2023/03/30 01:58:25;;;;;;;24.58;4.55;;;14.20;63.70;;;;;;5152160;27;20027;-78
2023/03/30 02:00:53;;;;;;;15.57;3.50;;;14.20;65.40;;;;;;5152018;27;20034;-80
2023/03/30 02:03:27;;;;;;;27.67;4.75;;;14.20;66.50;;;;;;5151955;27;20043;-74
2023/03/30 02:06:02;;;;;;;16.15;3.80;;;14.00;68.10;;;;;;5151935;27;20039;-74
2023/03/30 02:08:31;;;;;;;20.92;4.65;;;13.90;67.70;;;;;;5151885;27;20021;-73
2023/03/30 02:10:57;;;;;;;22.55;3.47;;;13.80;69.40;;;;;;5151743;27;20471;-73
2023/03/30 02:13:26;;;;;;;18.48;3.70;;;13.70;69.20;;;;;;5151652;27;20037;-74
2023/03/30 02:16:14;;;;;;;19.83;4.18;;;13.70;69.60;;;;;;5151514;27;20035;-73
2023/03/30 02:18:39;;;;;;;20.77;4.25;;;13.60;70.90;;;;;;5151321;27;20356;-73
2023/03/30 02:21:05;;;;;;;23.75;4.13;;;13.60;72.20;;;;;;5151580;27;20068;-73
2023/03/30 02:23:35;;;;;;;22.05;4.43;;;13.50;72.70;;;;;;5151489;27;20026;-73
2023/03/30 02:26:01;;;;;;;22.95;4.32;;;13.30;73.40;;;;;;5151257;27;20026;-73
2023/03/30 02:28:27;;;;;;;26.67;4.13;;;13.30;73.80;;;;;;5151432;27;20463;-73
2023/03/30 02:30:52;;;;;;;19.85;3.42;;;13.20;74.30;;;;;;5151307;27;20023;-73
2023/03/30 02:33:26;;;;;;;24.33;3.88;;;13.10;74.20;;;;;;5151221;27;20024;-73
2023/03/30 02:36:14;;;;;;;16.05;3.85;;;13.10;75.20;;;;;;5151352;27;20031;-73
2023/03/30 02:39:09;;;;;;;18.05;3.75;;;13.10;75.40;;;;;;5151284;27;20474;-73
2023/03/30 02:41:45;;;;;;;16.80;3.88;;;13.10;76.40;;;;;;5106938;27;20562;-73
2023/03/30 02:44:25;;;;;;;12.60;3.63;;;13.10;77.10;;;;;;5132677;27;20425;-74
2023/03/30 02:47:16;;;;;;;14.60;3.78;;;13.10;78.00;;;;;;5155987;27;20110;-74
2023/03/30 02:50:06;;;;;;;18.08;4.30;;;13.10;78.30;;;;;;5151355;27;20023;-74
2023/03/30 02:52:57;;;;;;;23.35;4.22;;;13.10;80.30;;;;;;5151302;27;20015;-75
2023/03/30 02:56:11;;;;;;;18.73;4.13;;;12.90;80.70;;;;;;5150946;27;20075;-74
2023/03/30 02:59:09;;;;;;;13.23;4.28;;;12.90;81.20;;;;;;5116311;27;20088;-73
2023/03/30 03:01:46;;;;;;;19.00;4.45;;;12.80;81.70;;;;;;5131674;27;20053;-73
2023/03/30 03:04:14;;;;;;;17.88;4.20;;;12.80;81.50;;;;;;5136818;27;20486;-73
2023/03/30 03:06:41;;;;;;;27.08;4.82;;;12.70;81.60;;;;;;5136665;27;20042;-73
2023/03/30 03:09:08;;;;;;;19.75;3.92;;;12.70;81.40;;;;;;5136809;27;20020;-73
2023/03/30 03:11:33;;;;;;;18.38;4.25;;;12.70;81.20;;;;;;5136756;27;20106;-73
2023/03/30 03:13:59;;;;;;;21.13;4.20;;;12.70;80.60;;;;;;5136694;27;20103;-73
2023/03/30 03:16:25;;;;;;;20.75;4.35;;;12.70;80.50;;;;;;5136617;27;20110;-75
2023/03/30 03:18:51;;;;;;;19.05;4.18;;;12.60;80.40;;;;;;5136581;27;20024;-74
2023/03/30 03:21:17;;;;;;;20.80;4.47;;;12.60;80.60;;;;;;5136385;27;20068;-74
2023/03/30 03:23:43;;;;;;;25.08;5.03;;;12.70;80.70;;;;;;5136408;27;20026;-73
2023/03/30 03:26:10;;;;;;;19.88;4.07;;;12.70;80.50;;;;;;5136160;27;20118;-74
2023/03/30 03:28:36;;;;;;;25.05;4.38;;;12.70;80.50;;;;;;5136388;27;20020;-74
2023/03/30 03:31:02;;;;;;;17.95;3.65;;;12.70;80.10;;;;;;5136299;27;20082;-75
2023/03/30 03:33:30;;;;;;;21.92;4.18;;;12.70;79.80;;;;;;5136229;27;20055;-73
2023/03/30 03:35:57;;;;;;;26.63;4.65;;;12.70;79.60;;;;;;5136156;27;20102;-76
2023/03/30 03:38:23;;;;;;;18.65;3.85;;;12.70;79.70;;;;;;5136168;27;20023;-73
2023/03/30 03:40:54;;;;;;;22.67;3.90;;;12.70;80.00;;;;;;5117715;27;20079;-81
2023/03/30 03:43:20;;;;;;;16.95;3.95;;;12.70;79.80;;;;;;5136220;27;20055;-81
2023/03/30 03:45:46;;;;;;;20.45;3.92;;;12.60;79.70;;;;;;5135880;27;20077;-79
2023/03/30 03:48:14;;;;;;;24.80;4.25;;;12.70;80.00;;;;;;5136048;27;20102;-76
2023/03/30 03:50:40;;;;;;;22.42;4.72;;;12.70;79.90;;;;;;5136003;27;20032;-80
2023/03/30 03:53:06;;;;;;;19.55;4.45;;;12.70;79.80;;;;;;5135737;27;20033;-77
2023/03/30 03:55:34;;;;;;;18.30;4.28;;;12.70;80.00;;;;;;5135666;27;20023;-79
2023/03/30 03:58:00;;;;;;;18.73;4.45;;;12.60;80.50;;;;;;5135855;27;20023;-74
2023/03/30 04:00:26;;;;;;;18.80;4.03;;;12.60;80.60;;;;;;5135936;27;20091;-76
2023/03/30 04:02:51;;;;;;;16.38;4.15;;;12.50;81.10;;;;;;5135711;27;20027;-76
2023/03/30 04:05:17;;;;;;;16.27;4.13;;;12.40;81.10;;;;;;5135604;27;20064;-74
2023/03/30 04:07:45;;;;;;;15.20;3.75;;;12.40;81.50;;;;;;5135668;27;20026;-76
2023/03/30 04:10:11;;;;;;;20.40;4.55;;;12.40;80.50;;;;;;5134505;27;20476;-77
2023/03/30 04:12:37;;;;;;;16.33;3.72;;;12.40;79.40;;;;;;5135535;27;20023;-72
2023/03/30 04:15:04;;;;;;;20.17;3.47;;;12.50;77.90;;;;;;5135400;27;20114;-75
2023/03/30 04:17:32;;;;;;;13.38;3.95;;;12.60;76.90;;;;;;5135397;27;20019;-73
2023/03/30 04:20:03;;;;;;;23.98;3.75;;;12.70;77.20;;;;;;5135492;27;20054;-73
2023/03/30 04:22:34;;;;;;;18.02;4.03;;;12.80;76.90;;;;;;5117162;27;20594;-74
2023/03/30 04:25:00;;;;;;;21.98;4.32;;;12.70;77.50;;;;;;5135197;27;20015;-76
2023/03/30 04:27:27;;;;;;;22.25;4.25;;;12.70;77.60;;;;;;5135291;27;20035;-79
2023/03/30 04:29:56;;;;;;;22.95;4.22;;;12.60;77.40;;;;;;5135036;27;20772;-74
2023/03/30 04:32:23;;;;;;;20.48;3.95;;;12.60;77.80;;;;;;5135197;27;20051;-73
2023/03/30 04:34:53;;;;;;;26.42;5.10;;;12.50;78.20;;;;;;5135199;27;20106;-74
2023/03/30 04:37:22;;;;;;;19.38;3.78;;;12.40;78.20;;;;;;5135077;27;20019;-74
2023/03/30 04:39:49;;;;;;;26.60;3.78;;;12.40;78.00;;;;;;5116687;27;20027;-74
2023/03/30 04:42:18;;;;;;;22.27;4.25;;;12.30;78.00;;;;;;5135015;27;20524;-73
2023/03/30 04:44:44;;;;;;;24.27;4.78;;;12.30;78.00;;;;;;5135354;27;20023;-77
2023/03/30 04:47:10;;;;;;;15.90;3.97;;;12.30;77.90;;;;;;5136140;27;20045;-73
2023/03/30 04:49:35;;;;;;;21.33;4.15;;;12.20;77.80;;;;;;5135077;27;20482;-74
2023/03/30 04:52:01;;;;;;;23.45;4.45;;;12.30;77.10;;;;;;5134656;27;20098;-74
2023/03/30 04:54:26;;;;;;;27.02;4.32;;;12.30;76.50;;;;;;5134666;27;20046;-73
2023/03/30 04:56:52;;;;;;;16.35;4.00;;;12.40;76.10;;;;;;5134681;27;20024;-74
2023/03/30 04:59:17;;;;;;;18.25;3.63;;;12.40;75.80;;;;;;5134500;27;20019;-73
2023/03/30 05:01:46;;;;;;;17.33;4.43;;;12.40;75.30;;;;;;5134428;27;20035;-73
2023/03/30 05:04:11;;;;;;;18.90;4.18;;;12.50;75.40;;;;;;5116280;27;20023;-75
2023/03/30 05:06:37;;;;;;;22.95;3.72;;;12.50;75.30;;;;;;5134424;27;20042;-79
2023/03/30 05:09:02;;;;;;;24.48;4.32;;;12.50;75.50;;;;;;5134618;27;20019;-74
2023/03/30 05:11:28;;;;;;;18.27;3.65;;;12.50;75.50;;;;;;5134470;27;20097;-75
2023/03/30 05:13:54;;;;;;;21.38;4.43;;;12.50;75.40;;;;;;5134338;27;20019;-73
2023/03/30 05:16:20;;;;;;;18.83;3.92;;;12.50;75.10;;;;;;5134376;27;20027;-72
2023/03/30 05:18:46;;;;;;;16.77;3.67;;;12.50;75.00;;;;;;5134183;27;20164;-73
2023/03/30 05:21:12;;;;;;;14.40;3.45;;;12.60;74.80;;;;;;5133886;27;20492;-73
2023/03/30 05:23:38;;;;;;;17.58;3.83;;;12.60;74.70;;;;;;5134055;27;20472;-74
2023/03/30 05:26:05;;;;;;;18.27;4.30;;;12.60;74.60;;;;;;5134017;27;20035;-74
2023/03/30 05:28:32;;;;;;;16.27;3.70;;;12.70;74.00;;;;;;5133794;27;20099;-76
2023/03/30 05:30:57;;;;;;;23.33;4.05;;;12.80;73.40;;;;;;5133693;27;20027;-75
2023/03/30 05:33:23;;;;;;;18.75;4.30;;;12.80;72.80;;;;;;5134925;27;20493;-75
2023/03/30 05:35:49;;;;;;;32.67;4.63;;;12.90;72.90;;;;;;5134562;27;20076;-74
2023/03/30 05:38:16;;;;;;;18.85;3.50;;;13.00;72.70;;;;;;5134178;27;20027;-74
2023/03/30 05:40:41;;;;;;;13.00;3.53;;;13.00;72.70;;;;;;5134125;27;20475;-73
2023/03/30 05:43:07;;;;;;;20.10;3.85;;;13.10;71.10;;;;;;5133786;27;20079;-73
2023/03/30 05:45:35;;;;;;;22.25;4.20;;;13.30;69.20;;;;;;5133717;27;20078;-75
2023/03/30 05:48:01;;;;;;;19.73;3.92;;;13.40;68.60;;;;;;5133740;28;20049;-74
2023/03/30 05:50:26;;;;;;;23.55;3.78;;;13.50;68.10;;;;;;5133815;28;20019;-74
2023/03/30 05:52:52;;;;;;;17.95;4.28;;;13.70;66.40;;;;;;5133378;28;20033;-74
2023/03/30 05:55:18;;;;;;;18.08;3.78;;;13.70;67.20;;;;;;5114861;28;20023;-73
2023/03/30 05:57:46;;;;;;;20.40;3.80;;;13.70;66.60;;;;;;5133436;28;20055;-75
2023/03/30 06:00:13;;;;;;;20.55;3.65;;;13.80;65.50;;;;;;5133439;28;20075;-75
2023/03/30 06:02:39;;;;;;;25.45;4.05;;;13.80;65.50;;;;;;5133530;28;20042;-74
2023/03/30 06:05:08;;;;;;;14.85;3.65;;;13.90;64.40;;;;;;5133259;28;20019;-76
2023/03/30 06:07:34;;;;;;;22.02;4.30;;;14.00;63.50;;;;;;5133222;28;20437;-76
2023/03/30 06:10:04;;;;;;;17.17;3.42;;;14.10;63.50;;;;;;5133137;28;20023;-73
2023/03/30 06:12:31;;;;;;;16.88;3.53;;;14.10;63.70;;;;;;5133385;28;20384;-74
2023/03/30 06:14:56;;;;;;;21.25;4.40;;;14.10;63.30;;;;;;5133417;28;20023;-75
2023/03/30 06:17:22;;;;;;;25.00;3.97;;;14.20;63.00;;;;;;5133787;28;20428;-74
2023/03/30 06:19:47;;;;;;;16.33;4.00;;;14.10;63.10;;;;;;5133379;28;20057;-74
2023/03/30 06:22:13;;;;;;;17.77;3.47;;;14.10;63.00;;;;;;5133558;28;20076;-74
2023/03/30 06:24:39;;;;;;;22.67;4.05;;;14.30;62.40;;;;;;5134571;28;20068;-72
2023/03/30 06:27:05;;;;;;;19.48;4.05;;;14.20;62.80;;;;;;5134198;28;20083;-76
2023/03/30 06:29:31;;;;;;;14.85;3.38;;;14.30;63.90;;;;;;5133611;28;20019;-74
2023/03/30 06:31:57;;;;;;;19.88;4.00;;;14.20;64.10;;;;;;5133450;27;20034;-74
2023/03/30 06:34:23;;;;;;;20.65;4.35;;;14.30;65.60;;;;;;5137383;27;20023;-75
2023/03/30 06:36:49;;;;;;;15.80;3.50;;;14.20;64.00;;;;;;5138507;27;20149;-76
2023/03/30 06:39:16;;;;;;;24.08;3.42;;;14.30;63.00;;;;;;5138845;27;20019;-74
2023/03/30 06:41:41;;;;;;;16.42;3.67;;;14.30;62.40;;;;;;5137748;27;20027;-74
2023/03/30 06:44:09;;;;;;;21.48;3.05;;;14.30;62.30;;;;;;5138013;27;20379;-74
2023/03/30 06:46:35;;;;;;;15.85;3.58;;;14.40;61.10;;;;;;5140063;27;20039;-81
2023/03/30 06:49:00;;;;;;;20.52;3.65;;;14.40;61.20;;;;;;5141540;27;20502;-83
2023/03/30 06:51:26;;;;;;;16.08;3.45;;;14.50;61.20;;;;;;5141197;27;20031;-86
2023/03/30 06:53:52;;;;;;;17.02;3.53;;;14.50;61.30;;;;;;5139883;27;20016;-87
2023/03/30 06:56:17;;;;;;;19.42;3.53;;;14.60;60.90;;;;;;5139309;27;20030;-86
2023/03/30 06:58:44;;;;;;;16.55;3.53;;;14.60;60.60;;;;;;5138700;27;20031;-81
2023/03/30 07:01:12;;;;;;;19.73;3.85;;;14.70;60.70;;;;;;5137577;27;20027;-83
2023/03/30 07:03:38;;;;;;;17.08;3.03;;;14.70;59.40;;;;;;5139300;27;20023;-76
2023/03/30 07:06:06;;;;;;;33.42;4.28;;;14.70;59.20;;;;;;5138597;27;20038;-75
2023/03/30 07:08:32;;;;;;;16.13;3.75;;;14.90;59.50;;;;;;5136823;27;20050;-78
2023/03/30 07:10:58;;;;;;;17.75;3.75;;;15.00;58.30;;;;;;5118496;27;20391;-75
2023/03/30 07:13:24;;;;;;;23.15;4.13;;;15.10;57.70;;;;;;5136314;27;20102;-78
2023/03/30 07:15:51;;;;;;;18.15;3.65;;;15.30;56.60;;;;;;5136746;27;20019;-74
2023/03/30 07:18:17;;;;;;;24.05;4.35;;;15.30;58.00;;;;;;5136683;27;20019;-74
2023/03/30 07:20:44;;;;;;;16.92;4.28;;;15.30;60.50;;;;;;5118113;27;20023;-79
2023/03/30 07:23:10;;;;;;;16.40;4.05;;;15.30;59.70;;;;;;5118197;27;20028;-77
2023/03/30 07:25:37;;;;;;;24.23;4.63;;;15.30;60.60;;;;;;5117851;27;20467;-76
2023/03/30 07:28:05;;;;;;;21.27;4.43;;;15.30;61.20;;;;;;5136368;27;20383;-76
2023/03/30 07:30:34;;;;;;;17.00;3.90;;;15.40;59.70;;;;;;5117691;27;20019;-78
2023/03/30 07:33:00;;;;;;;19.60;3.95;;;15.40;59.30;;;;;;5136421;27;20023;-78
2023/03/30 07:35:26;;;;;;;19.05;3.85;;;15.50;60.40;;;;;;5118161;27;20019;-78
2023/03/30 07:37:52;;;;;;;20.17;4.45;;;15.40;60.40;;;;;;5118092;27;20110;-78
2023/03/30 07:40:20;;;;;;;14.27;3.53;;;15.50;60.20;;;;;;5136180;27;20069;-77
2023/03/30 07:42:46;;;;;;;24.38;4.32;;;15.70;59.90;;;;;;5136518;27;20023;-78
2023/03/30 07:45:12;;;;;;;21.95;3.92;;;15.70;60.00;;;;;;5121810;27;20019;-77
2023/03/30 07:47:39;;;;;;;23.02;3.20;;;15.60;60.40;;;;;;5135693;27;20116;-77
2023/03/30 07:50:05;;;;;;;13.05;3.08;;;15.70;60.40;;;;;;5136092;27;20026;-77
2023/03/30 07:52:31;;;;;;;24.77;3.95;;;15.70;60.20;;;;;;5135830;27;20551;-77
2023/03/30 07:54:57;;;;;;;22.98;5.43;;;15.50;60.90;;;;;;5117372;27;20019;-77
2023/03/30 07:57:23;;;;;;;19.13;4.15;;;15.20;61.90;;;;;;5136018;27;20056;-76
2023/03/30 07:59:49;;;;;;;16.88;4.13;;;15.30;62.50;;;;;;5117678;27;20031;-77
2023/03/30 08:02:16;;;;;;;17.30;4.03;;;15.40;62.40;;;;;;5135574;27;20018;-77
2023/03/30 08:04:43;;;;;;;17.02;3.75;;;15.40;62.30;;;;;;5135678;27;20029;-77
2023/03/30 08:07:10;;;;;;;16.77;4.47;;;15.30;62.90;;;;;;5117292;27;20031;-76
2023/03/30 08:09:36;;;;;;;19.75;3.45;;;15.00;64.30;;;;;;5135652;27;20070;-77
2023/03/30 08:12:03;;;;;;;19.05;3.97;;;14.90;65.90;;;;;;5135912;27;20023;-77
2023/03/30 08:14:28;;;;;;;16.98;3.60;;;15.00;65.50;;;;;;5135639;27;20472;-76
2023/03/30 08:16:55;;;;;;;18.92;4.30;;;15.20;66.70;;;;;;5135386;27;20023;-76
2023/03/30 08:19:22;;;;;;;16.17;4.15;;;15.20;65.60;;;;;;5135509;27;20489;-76
2023/03/30 08:21:48;;;;;;;13.45;4.13;;;15.10;65.60;;;;;;5135333;27;20027;-76
2023/03/30 08:24:14;;;;;;;14.80;3.63;;;15.00;66.40;;;;;;5116763;27;20027;-77
2023/03/30 08:26:39;;;;;;;11.57;3.50;;;15.00;66.60;;;;;;5135141;27;20436;-76
2023/03/30 08:29:06;;;;;;;20.00;4.95;;;15.10;66.10;;;;;;5135520;27;20120;-76
2023/03/30 08:31:31;;;;;;;18.90;4.30;;;15.10;65.90;;;;;;5135384;27;20479;-76
2023/03/30 08:33:58;;;;;;;22.02;4.70;;;14.90;67.40;;;;;;5116836;27;20015;-77
2023/03/30 08:36:24;;;;;;;15.20;3.85;;;14.70;67.20;;;;;;5117000;27;20030;-77
2023/03/30 08:38:49;;;;;;;17.80;4.18;;;14.70;67.00;;;;;;5117161;27;20537;-77
2023/03/30 08:41:28;;;;;;;13.93;3.25;;;14.70;66.70;;;;;;5116468;27;20027;-75
2023/03/30 08:43:53;;;;;;;12.02;3.83;;;14.80;67.00;;;;;;5116613;27;20040;-77
2023/03/30 08:46:20;;;;;;;17.88;4.10;;;14.70;67.90;;;;;;5118209;27;20051;-78
2023/03/30 08:48:47;;;;;;;17.25;3.67;;;14.60;69.10;;;;;;5116352;27;20024;-78
2023/03/30 08:51:29;;;;;;;13.02;3.92;;;14.50;69.40;;;;;;5115980;27;20087;-75
2023/03/30 08:54:31;;;;;;;20.20;3.63;;;14.40;69.90;;;;;;5134648;27;20026;-81
2023/03/30 08:57:28;;;;;;;14.07;4.28;;;14.20;70.80;;;;;;5133946;27;20023;-75
2023/03/30 09:00:32;;;;;;;14.48;4.30;;;14.00;71.90;;;;;;5061339;27;20063;-76
2023/03/30 09:03:11;;;;;;;16.58;4.00;;;13.90;73.10;;;;;;5120315;27;20031;-76
2023/03/30 09:05:46;;;;;;;13.25;4.50;;;13.80;74.50;;;;;;5115881;27;20030;-76
2023/03/30 09:08:21;;;;;;;17.60;4.30;;;13.50;77.70;;;;;;5116585;27;20035;-77
2023/03/30 09:11:14;;;;;;;18.85;4.72;;;13.30;79.50;;;;;;5134776;27;20072;-77
2023/03/30 09:13:44;;;;;;;14.98;4.47;;;13.30;80.60;;;;;;5115960;27;20030;-76
2023/03/30 09:16:25;;;;;;;15.57;4.15;;;13.20;81.00;;;;;;5115705;27;20028;-75
2023/03/30 09:18:56;;;;;;;20.23;4.78;;;13.10;81.40;;;;;;5116061;27;20020;-77
2023/03/30 09:21:27;;;;;;;20.70;5.00;;;12.90;83.10;;;;;;5116160;27;20027;-76
2023/03/30 09:23:56;;;;;;;18.23;5.03;;;12.80;83.10;;;;;;5115756;27;20019;-76
2023/03/30 09:26:45;;;;;;;20.27;5.95;;;12.80;83.60;;;;;;5115830;27;20031;-76
2023/03/30 09:29:23;;;;;;;18.67;6.00;;;12.60;84.20;;;;;;5115838;27;20015;-76
2023/03/30 09:32:16;;;;;;;17.58;4.88;;;12.60;84.40;;;;;;5115198;28;20118;-75
2023/03/30 09:34:58;;;;;;;13.10;4.90;;;12.60;84.60;;;;;;5115545;27;20016;-76
2023/03/30 09:37:26;;;;;;;17.05;4.78;;;12.60;84.80;;;;;;5134210;27;20011;-76
2023/03/30 09:39:52;;;;;;;19.08;4.82;;;12.60;84.40;;;;;;5115890;27;20019;-77
2023/03/30 09:42:23;;;;;;;18.20;4.28;;;12.60;84.60;;;;;;5115721;28;20395;-75
2023/03/30 09:45:13;;;;;;;14.50;5.32;;;12.60;84.90;;;;;;5115669;28;20019;-75
2023/03/30 09:47:41;;;;;;;19.55;5.05;;;12.60;86.30;;;;;;5115126;28;20035;-75
2023/03/30 09:50:22;;;;;;;11.63;4.28;;;12.60;86.00;;;;;;5115619;28;20106;-77
2023/03/30 09:53:23;;;;;;;23.23;6.40;;;12.60;86.00;;;;;;5133782;27;20023;-77
2023/03/30 09:56:00;;;;;;;12.40;3.78;;;12.70;85.70;;;;;;5133880;27;20030;-76
2023/03/30 09:58:31;;;;;;;12.43;3.50;;;12.70;83.20;;;;;;5134097;27;20361;-78
2023/03/30 10:01:13;;;;;;;9.32;3.00;;;12.60;82.20;;;;;;5115707;28;20095;-76
2023/03/30 10:03:41;;;;;;;9.20;3.35;;;12.70;81.30;;;;;;5115457;28;20072;-77
2023/03/30 10:06:11;;;;;;;13.70;3.47;;;12.70;81.00;;;;;;5115383;27;20341;-78
2023/03/30 10:08:48;;;;;;;11.05;3.40;;;12.80;80.70;;;;;;5118390;27;20031;-76
2023/03/30 10:11:19;;;;;;;7.40;3.50;;;12.90;80.00;;;;;;5113872;27;20431;-78
2023/03/30 10:13:47;;;;;;;7.68;2.55;;;13.10;79.40;;;;;;5119157;27;20024;-78
2023/03/30 10:16:42;;;;;;;8.02;3.40;;;13.20;75.50;;;;;;5119555;27;20025;-75
2023/03/30 10:19:19;;;;;;;7.78;2.65;;;13.40;78.10;;;;;;5116893;27;20077;-76
2023/03/30 10:21:45;;;;;;;12.70;5.28;;;13.50;77.40;;;;;;5119317;27;20079;-77
2023/03/30 10:24:14;;;;;;;9.48;3.10;;;13.70;76.80;;;;;;5124877;27;20136;-79
2023/03/30 10:26:45;;;;;;;9.30;2.47;;;13.80;76.20;;;;;;5119010;27;20038;-77
2023/03/30 10:29:15;;;;;;;12.43;3.38;;;13.80;72.40;;;;;;5119449;27;20023;-79
2023/03/30 10:31:44;;;;;;;10.02;3.20;;;13.90;73.10;;;;;;5118865;27;20035;-76
2023/03/30 10:34:17;;;;;;;10.38;2.92;;;13.80;72.40;;;;;;5119049;27;20025;-75
2023/03/30 10:36:46;;;;;;;9.15;3.63;;;13.80;71.90;;;;;;5119087;27;20064;-77
2023/03/30 10:39:32;;;;;;;11.57;2.55;;;13.60;71.50;;;;;;5117973;27;20023;-76
2023/03/30 10:42:00;;;;;;;13.38;3.08;;;13.60;71.80;;;;;;5128387;27;20031;-78
2023/03/30 10:44:40;;;;;;;6.07;2.30;;;13.50;72.70;;;;;;5137389;27;20023;-76
2023/03/30 10:47:29;;;;;;;8.45;2.80;;;13.40;70.50;;;;;;5136932;27;20047;-75
2023/03/30 10:50:15;;;;;;;10.18;2.80;;;13.30;72.50;;;;;;5117722;27;20026;-77
2023/03/30 10:52:51;;;;;;;9.13;3.03;;;13.30;71.70;;;;;;5136764;27;20038;-76
2023/03/30 10:55:16;;;;;;;;;;;13.20;72.90;;;;;;5118453;27;20075;-76
2023/03/30 10:57:59;;;;;;;;;;;13.10;72.20;;;;;;5136927;27;20309;-76
2023/03/30 11:01:02;;;;;;;10.73;3.53;;;13.20;72.20;;;;;;5117932;27;19964;-78
2023/03/30 11:03:31;;;;;;;16.00;3.33;;;13.40;71.60;;;;;;5136852;27;20035;-76
2023/03/30 11:06:20;;;;;;;12.57;3.25;;;13.70;70.60;;;;;;5117655;27;20385;-78
2023/03/30 11:08:49;;;;;;;12.45;3.28;;;14.20;68.60;;;;;;5117984;27;20107;-76
2023/03/30 11:11:32;;;;;;;12.88;4.53;;;14.30;68.30;;;;;;5117874;27;20026;-76
2023/03/30 11:14:06;;;;;;;12.38;3.17;;;14.30;68.70;;;;;;5136432;27;20026;-78
2023/03/30 11:16:41;;;;;;;11.65;3.72;;;14.40;68.50;;;;;;5117893;27;20040;-76
2023/03/30 11:19:27;;;;;;;12.30;3.67;;;14.50;67.80;;;;;;5117060;27;20019;-78
2023/03/30 11:22:03;;;;;;;10.98;3.40;;;14.30;67.90;;;;;;5135611;27;20272;-76
2023/03/30 11:24:29;;;;;;;11.60;3.33;;;14.30;69.20;;;;;;5136351;27;20022;-76
2023/03/30 11:27:35;;;;;;;14.30;3.75;;;14.40;68.70;;;;;;5117849;27;20035;-77
2023/03/30 11:30:13;;;;;;;14.75;3.70;;;14.30;66.80;;;;;;5136813;27;20038;-78
2023/03/30 11:33:07;;;;;;;12.23;3.67;;;14.40;67.30;;;;;;5119794;27;20031;-79
2023/03/30 11:35:59;;;;;;;10.57;3.17;;;14.40;67.80;;;;;;5104524;27;20038;-77
2023/03/30 11:38:50;;;;;;;9.73;3.60;;;14.20;68.10;;;;;;5117981;27;20031;-80
2023/03/30 11:41:23;;;;;;;14.90;3.65;;;14.00;69.80;;;;;;5117838;27;20471;-79
2023/03/30 11:43:54;;;;;;;12.68;3.80;;;13.70;70.90;;;;;;5106889;27;20026;-81
2023/03/30 11:46:46;;;;;;;13.05;4.10;;;13.50;73.50;;;;;;5125360;27;20051;-78
2023/03/30 11:49:58;;;;;;;17.52;4.60;;;13.30;73.20;;;;;;5124587;27;20106;-82
2023/03/30 11:52:38;;;;;;;12.45;4.13;;;13.10;74.90;;;;;;5109789;27;20081;-81
2023/03/30 11:55:06;;;;;;;13.88;4.35;;;13.00;77.10;;;;;;5107042;27;20093;-83
2023/03/30 11:58:03;;;;;;;12.60;4.63;;;13.00;77.80;;;;;;5126745;27;20023;-81
2023/03/30 12:00:52;;;;;;;15.10;4.93;;;12.80;78.90;;;;;;5020406;27;20106;-78
2023/03/30 12:03:37;;;;;;;13.77;4.32;;;12.80;79.50;;;;;;5109754;27;20019;-76
2023/03/30 12:06:26;;;;;;;12.57;4.25;;;12.80;77.90;;;;;;5128833;27;20035;-83
2023/03/30 12:09:15;;;;;;;11.30;4.00;;;12.60;78.90;;;;;;5113740;27;20027;-80
2023/03/30 12:11:50;;;;;;;11.55;4.25;;;12.50;77.00;;;;;;5111338;28;20020;-73
2023/03/30 12:14:40;;;;;;;12.82;3.95;;;12.50;77.80;;;;;;5123227;27;20015;-78
2023/03/30 12:17:25;;;;;;;13.05;3.97;;;12.50;76.20;;;;;;5107216;27;20063;-81
2023/03/30 12:20:04;;;;;;;9.52;3.63;;;12.30;75.50;;;;;;5107098;27;20109;-79
2023/03/30 12:22:54;;;;;;;8.18;2.95;;;12.40;76.30;;;;;;5106987;27;20027;-80
2023/03/30 12:25:22;;;;;;;9.60;3.70;;;12.40;72.00;;;;;;5106932;27;20023;-82
2023/03/30 12:28:14;;;;;;;7.88;3.67;;;12.50;72.10;;;;;;5105072;27;20042;-82
2023/03/30 12:30:56;;;;;;;7.70;4.10;;;12.50;70.40;;;;;;5096932;27;20154;-79
2023/03/30 12:33:34;;;;;;;10.02;3.17;;;12.60;69.20;;;;;;5104416;27;20026;-79
2023/03/30 12:36:02;;;;;;;9.95;3.88;;;12.70;68.30;;;;;;5104424;27;20016;-78
2023/03/30 12:38:42;;;;;;;8.63;3.72;;;12.60;67.90;;;;;;5106262;27;20047;-77
2023/03/30 12:41:17;;;;;;;8.98;3.67;;;12.60;68.10;;;;;;5122883;27;20490;-78
2023/03/30 12:44:13;;;;;;;9.05;3.40;;;12.70;67.70;;;;;;5104125;27;20028;-81
2023/03/30 12:46:42;;;;;;;11.23;3.53;;;12.80;66.40;;;;;;5124708;27;20043;-82
2023/03/30 12:49:14;;;;;;;7.35;3.08;;;13.00;65.90;;;;;;5123527;27;20456;-84
2023/03/30 12:52:00;;;;;;;8.85;3.00;;;12.90;65.70;;;;;;5107788;27;20031;-83
2023/03/30 12:54:40;;;;;;;12.10;3.38;;;13.10;63.70;;;;;;5120153;27;20027;-83
2023/03/30 12:57:28;;;;;;;8.07;2.85;;;13.00;64.50;;;;;;5106098;27;20454;-81
2023/03/30 13:00:12;;;;;;;8.75;2.72;;;13.00;64.90;;;;;;5107756;27;20035;-80
2023/03/30 13:03:00;;;;;;;9.10;3.20;;;13.10;65.00;;;;;;5106136;28;20105;-81
2023/03/30 13:05:32;;;;;;;8.13;2.83;;;13.20;63.60;;;;;;5103870;28;20429;-82